createdAt,value
2018-01-19T00:00:55.159Z,19.13
2018-01-19T00:03:24.967Z,20.60
2018-01-19T00:05:55.229Z,14.17
2018-01-19T00:08:26.281Z,7.10
2018-01-19T00:10:55.522Z,7.47
2018-01-19T00:13:25.169Z,10.70
2018-01-19T00:15:56.312Z,7.73
2018-01-19T00:18:25.859Z,13.63
2018-01-19T00:20:56.120Z,11.33
2018-01-19T00:23:25.644Z,10.93
2018-01-19T00:25:55.904Z,14.87
2018-01-19T00:28:25.395Z,13.93
2018-01-19T00:30:55.287Z,14.03
2018-01-19T00:33:28.069Z,15.00
2018-01-19T00:35:57.619Z,12.13
2018-01-19T00:38:27.119Z,14.70
2018-01-19T00:40:57.406Z,21.57
2018-01-19T00:43:26.904Z,24.50
2018-01-19T00:45:56.834Z,23.23
2018-01-19T00:48:27.105Z,20.60
2018-01-19T00:50:56.668Z,23.90
2018-01-19T00:53:26.176Z,23.60
2018-01-19T00:55:55.846Z,23.23
2018-01-19T00:58:25.335Z,26.23
2018-01-19T01:00:54.848Z,26.57
2018-01-19T01:03:26.712Z,26.27
2018-01-19T01:05:56.531Z,28.83
2018-01-19T01:08:26.017Z,32.23
2018-01-19T01:10:55.539Z,33.30
2018-01-19T01:13:26.968Z,31.77
2018-01-19T01:15:57.627Z,34.63
2018-01-19T01:18:28.780Z,43.13
2018-01-19T01:20:58.731Z,40.07
2018-01-19T01:23:28.235Z,36.63
2018-01-19T01:25:57.787Z,41.73
2018-01-19T01:28:27.295Z,41.40
2018-01-19T01:30:56.600Z,42.57
2018-01-19T01:33:26.125Z,42.43
2018-01-19T01:35:56.361Z,45.00
2018-01-19T01:38:26.975Z,40.70
2018-01-19T01:40:56.449Z,43.13
2018-01-19T01:43:25.981Z,46.23
2018-01-19T01:45:55.465Z,46.90
2018-01-19T01:48:24.626Z,43.07
2018-01-19T01:50:54.168Z,47.80
2018-01-19T01:53:23.866Z,47.20
2018-01-19T01:55:53.447Z,44.33
2018-01-19T01:58:24.622Z,47.23
2018-01-19T02:00:54.232Z,49.07
2018-01-19T02:03:26.230Z,44.43
2018-01-19T02:05:56.487Z,51.77
2018-01-19T02:08:26.011Z,46.97
2018-01-19T02:10:55.518Z,47.27
2018-01-19T02:13:26.452Z,45.63
2018-01-19T02:15:56.042Z,51.23
2018-01-19T02:18:25.593Z,48.00
2018-01-19T02:20:55.145Z,45.97
2018-01-19T02:23:26.531Z,48.00
2018-01-19T02:25:56.028Z,48.37
2018-01-19T02:28:25.513Z,47.30
2018-01-19T02:30:55.772Z,52.13
2018-01-19T02:33:26.053Z,47.00
2018-01-19T02:35:55.563Z,47.60
2018-01-19T02:38:25.271Z,50.73
2018-01-19T02:40:54.847Z,49.03
2018-01-19T02:43:26.659Z,48.33
2018-01-19T02:45:56.331Z,44.33
2018-01-19T02:48:27.321Z,45.80
2018-01-19T02:50:57.103Z,41.37
2018-01-19T02:53:26.597Z,35.93
2018-01-19T02:55:56.131Z,39.23
2018-01-19T02:58:25.625Z,31.27
2018-01-19T03:00:55.133Z,31.50
2018-01-19T03:03:27.227Z,30.03
2018-01-19T03:05:56.709Z,25.77
2018-01-19T03:08:26.212Z,27.23
2018-01-19T03:10:56.136Z,27.47
2018-01-19T03:13:25.856Z,25.33
2018-01-19T03:15:55.345Z,29.53
2018-01-19T03:18:24.890Z,32.40
2018-01-19T03:20:56.634Z,29.23
2018-01-19T03:23:26.140Z,32.50
2018-01-19T03:25:55.643Z,37.10
2018-01-19T03:28:25.139Z,33.03
2018-01-19T03:30:55.397Z,35.13
2018-01-19T03:33:24.958Z,36.07
2018-01-19T03:35:56.844Z,37.73
2018-01-19T03:38:26.348Z,29.97
2018-01-19T03:40:55.881Z,33.00
2018-01-19T03:43:25.429Z,30.37
2018-01-19T03:45:54.931Z,26.87
2018-01-19T03:48:26.286Z,26.70
2018-01-19T03:50:55.771Z,21.27
2018-01-19T03:53:25.302Z,22.17
2018-01-19T03:55:54.634Z,23.73
2018-01-19T03:58:23.950Z,22.73
2018-01-19T04:00:55.798Z,20.27
2018-01-19T04:03:25.271Z,19.57
2018-01-19T04:05:56.818Z,18.53
2018-01-19T04:08:26.379Z,18.80
2018-01-19T04:10:55.900Z,16.83
2018-01-19T04:13:25.432Z,11.40
2018-01-19T04:15:54.947Z,12.30
2018-01-19T04:18:26.600Z,11.17
2018-01-19T04:20:56.351Z,9.27
2018-01-19T04:23:25.853Z,11.03
2018-01-19T04:25:55.337Z,10.93
2018-01-19T04:28:24.879Z,10.37
2018-01-19T04:30:55.328Z,10.07
2018-01-19T04:33:24.832Z,9.77
2018-01-19T04:35:55.092Z,6.90
2018-01-19T04:38:27.366Z,7.93
2018-01-19T04:40:57.021Z,11.13
2018-01-19T04:43:26.562Z,10.30
2018-01-19T04:45:55.888Z,7.87
2018-01-19T04:48:25.272Z,7.63
2018-01-19T04:50:57.540Z,7.20
2018-01-19T04:53:27.299Z,6.03
2018-01-19T04:55:57.344Z,6.47
2018-01-19T04:58:26.632Z,5.87
2018-01-19T05:00:56.132Z,7.10
2018-01-19T05:03:26.389Z,6.00
2018-01-19T05:05:55.919Z,7.77
2018-01-19T05:08:25.449Z,7.63
2018-01-19T05:10:54.991Z,7.10
2018-01-19T05:13:26.623Z,8.07
2018-01-19T05:15:56.584Z,8.73
2018-01-19T05:18:27.133Z,8.97
2018-01-19T05:20:56.624Z,7.57
2018-01-19T05:23:26.111Z,10.17
2018-01-19T05:25:55.660Z,9.47
2018-01-19T05:28:26.148Z,9.37
2018-01-19T05:30:55.796Z,10.40
2018-01-19T05:33:25.415Z,10.13
2018-01-19T05:35:54.906Z,10.90
2018-01-19T05:38:25.084Z,10.53
2018-01-19T05:40:58.060Z,10.97
2018-01-19T05:43:27.609Z,10.97
2018-01-19T05:45:58.147Z,11.17
2018-01-19T05:48:27.746Z,10.73
2018-01-19T05:50:57.226Z,11.23
2018-01-19T05:53:27.179Z,12.27
2018-01-19T05:55:56.697Z,14.37
2018-01-19T05:58:26.192Z,11.87
2018-01-19T06:00:55.676Z,14.40
2018-01-19T06:03:25.181Z,10.03
2018-01-19T06:05:55.593Z,12.77
2018-01-19T06:08:24.960Z,19.43
2018-01-19T06:10:56.720Z,17.17
2018-01-19T06:13:26.195Z,15.30
2018-01-19T06:15:55.726Z,16.80
2018-01-19T06:18:25.223Z,14.83
2018-01-19T06:20:57.194Z,19.23
2018-01-19T06:23:27.566Z,13.73
2018-01-19T06:25:57.127Z,13.77
2018-01-19T06:28:26.658Z,14.83
2018-01-19T06:30:56.163Z,17.87
2018-01-19T06:33:26.906Z,20.33
2018-01-19T06:35:57.167Z,16.33
2018-01-19T06:38:27.528Z,18.57
2018-01-19T06:40:57.012Z,17.73
2018-01-19T06:43:27.005Z,20.57
2018-01-19T06:45:56.503Z,18.73
2018-01-19T06:48:26.088Z,17.67
2018-01-19T06:50:56.859Z,19.03
2018-01-19T06:53:26.347Z,21.03
2018-01-19T06:55:58.387Z,30.97
2018-01-19T06:58:27.868Z,22.83
2018-01-19T07:00:58.328Z,24.67
2018-01-19T07:03:28.068Z,27.90
2018-01-19T07:05:58.925Z,21.83
2018-01-19T07:08:28.438Z,28.47
2018-01-19T07:11:00.313Z,20.23
2018-01-19T07:13:29.920Z,23.40
2018-01-19T07:16:00.942Z,20.13
2018-01-19T07:18:30.458Z,20.53
2018-01-19T07:21:00.659Z,16.90
2018-01-19T07:23:30.610Z,19.00
2018-01-19T07:26:00.522Z,18.07
2018-01-19T07:28:30.095Z,16.87
2018-01-19T07:31:00.365Z,17.27
2018-01-19T07:33:30.041Z,19.67
2018-01-19T07:36:00.508Z,20.90
2018-01-19T07:38:30.691Z,17.07
2018-01-19T07:41:00.030Z,19.67
2018-01-19T07:43:29.524Z,16.23
2018-01-19T07:46:00.897Z,21.03
2018-01-19T07:48:30.478Z,24.43
2018-01-19T07:51:01.254Z,24.90
2018-01-19T07:53:30.814Z,24.17
2018-01-19T07:56:01.241Z,25.80
2018-01-19T07:58:30.793Z,25.07
2018-01-19T08:01:00.331Z,24.70
2018-01-19T08:03:29.969Z,30.57
2018-01-19T08:06:01.072Z,25.63
2018-01-19T08:08:30.564Z,29.13
2018-01-19T08:11:00.822Z,31.97
2018-01-19T08:13:30.775Z,23.43
2018-01-19T08:16:00.668Z,21.63
2018-01-19T08:18:30.640Z,22.17
2018-01-19T08:21:00.188Z,20.03
2018-01-19T08:23:29.735Z,22.77
2018-01-19T08:25:59.323Z,18.40
2018-01-19T08:28:29.141Z,18.87
2018-01-19T08:30:58.628Z,16.73
2018-01-19T08:33:28.119Z,21.27
2018-01-19T08:35:57.680Z,19.20
2018-01-19T08:38:27.304Z,19.00
2018-01-19T08:40:57.137Z,16.93
2018-01-19T08:43:27.390Z,17.33
2018-01-19T08:45:56.940Z,18.30
2018-01-19T08:48:28.986Z,18.60
2018-01-19T08:50:58.615Z,19.83
2018-01-19T08:53:28.173Z,18.73
2018-01-19T08:55:57.717Z,19.70
2018-01-19T08:58:27.212Z,22.50
2018-01-19T09:00:57.521Z,20.47
2018-01-19T09:03:27.025Z,25.93
2018-01-19T09:05:56.559Z,18.43
2018-01-19T09:08:26.076Z,16.43
2018-01-19T09:10:55.595Z,21.07
2018-01-19T09:13:26.216Z,25.07
2018-01-19T09:15:55.708Z,24.13
2018-01-19T09:18:25.209Z,20.40
2018-01-19T09:20:57.258Z,21.43
2018-01-19T09:23:26.908Z,22.40
2018-01-19T09:25:56.395Z,16.73
2018-01-19T09:28:25.900Z,14.50
2018-01-19T09:30:55.441Z,18.50
2018-01-19T09:33:24.921Z,21.87
2018-01-19T09:35:56.409Z,14.40
2018-01-19T09:38:25.932Z,16.13
2018-01-19T09:40:55.429Z,11.00
2018-01-19T09:43:24.755Z,19.77
2018-01-19T09:45:54.299Z,12.47
2018-01-19T09:48:25.917Z,17.27
2018-01-19T09:50:56.855Z,19.47
2018-01-19T09:53:26.375Z,14.40
2018-01-19T09:55:55.879Z,12.33
2018-01-19T09:58:25.378Z,15.13
2018-01-19T10:00:54.893Z,14.37
2018-01-19T10:03:26.538Z,18.63
2018-01-19T10:05:55.690Z,14.57
2018-01-19T10:08:24.839Z,16.23
2018-01-19T10:10:55.375Z,13.90
2018-01-19T10:13:25.343Z,14.60
2018-01-19T10:15:54.710Z,18.67
2018-01-19T10:18:24.229Z,16.77
2018-01-19T10:20:55.617Z,16.07
2018-01-19T10:23:25.115Z,16.20
2018-01-19T10:25:55.382Z,15.07
2018-01-19T10:28:24.863Z,19.50
2018-01-19T10:30:56.239Z,15.40
2018-01-19T10:33:25.738Z,11.27
2018-01-19T10:35:55.258Z,15.87
2018-01-19T10:38:25.856Z,14.73
2018-01-19T10:40:55.839Z,10.27
2018-01-19T10:43:25.331Z,16.77
2018-01-19T10:45:54.804Z,14.83
2018-01-19T10:48:25.457Z,15.40
2018-01-19T10:50:55.706Z,15.67
2018-01-19T10:53:25.987Z,10.90
2018-01-19T10:55:55.492Z,11.27
2018-01-19T10:58:25.037Z,12.60
2018-01-19T11:00:56.536Z,17.50
2018-01-19T11:03:26.132Z,14.90
2018-01-19T11:05:55.685Z,16.87
2018-01-19T11:08:25.345Z,15.93
2018-01-19T11:10:55.203Z,14.50
2018-01-19T11:13:24.698Z,9.53
2018-01-19T11:15:54.236Z,16.00
2018-01-19T11:18:23.762Z,13.57
2018-01-19T11:20:53.311Z,15.37
2018-01-19T11:23:23.156Z,14.23
2018-01-19T11:25:53.011Z,13.27
2018-01-19T11:28:22.496Z,14.10
2018-01-19T11:30:52.011Z,11.57
2018-01-19T11:33:21.511Z,12.27
2018-01-19T11:35:51.018Z,14.87
2018-01-19T11:38:20.516Z,18.63
2018-01-19T11:40:50.123Z,14.50
2018-01-19T11:43:19.641Z,16.03
2018-01-19T11:45:51.988Z,14.53
2018-01-19T11:48:21.476Z,11.17
2018-01-19T11:50:53.177Z,10.10
2018-01-19T11:53:25.822Z,11.40
2018-01-19T11:55:55.305Z,14.10
2018-01-19T11:58:24.854Z,16.63
2018-01-19T12:00:56.381Z,13.10
2018-01-19T12:03:26.272Z,13.17
2018-01-19T12:05:56.888Z,13.23
2018-01-19T12:08:26.363Z,14.23
2018-01-19T12:10:55.962Z,9.70
2018-01-19T12:13:25.453Z,8.63
2018-01-19T12:15:54.964Z,17.47
2018-01-19T12:18:26.185Z,13.70
2018-01-19T12:20:55.668Z,12.57
2018-01-19T12:23:25.164Z,11.53
2018-01-19T12:25:56.015Z,16.90
2018-01-19T12:28:25.512Z,10.50
2018-01-19T12:30:55.017Z,9.73
2018-01-19T12:33:26.495Z,18.07
2018-01-19T12:35:55.994Z,10.80
2018-01-19T12:38:25.485Z,8.60
2018-01-19T12:40:56.063Z,11.10
2018-01-19T12:43:26.019Z,8.70
2018-01-19T12:45:55.192Z,10.20
2018-01-19T12:48:26.691Z,13.57
2018-01-19T12:50:56.191Z,8.30
2018-01-19T12:53:25.706Z,10.50
2018-01-19T12:55:55.245Z,13.33
2018-01-19T12:58:26.778Z,9.23
2018-01-19T13:00:56.509Z,15.03
2018-01-19T13:03:26.014Z,9.80
2018-01-19T13:05:55.532Z,11.30
2018-01-19T13:08:25.049Z,9.87
2018-01-19T13:10:55.416Z,13.87
2018-01-19T13:13:25.027Z,10.23
2018-01-19T13:15:56.672Z,11.80
2018-01-19T13:18:26.995Z,9.37
2018-01-19T13:20:56.600Z,8.13
2018-01-19T13:23:27.052Z,10.07
2018-01-19T13:25:56.661Z,7.70
2018-01-19T13:28:26.142Z,7.13
2018-01-19T13:30:55.650Z,7.37
2018-01-19T13:33:25.156Z,6.37
2018-01-19T13:35:56.477Z,8.33
2018-01-19T13:38:25.984Z,10.00
2018-01-19T13:40:55.480Z,6.23
2018-01-19T13:43:24.996Z,7.10
2018-01-19T13:45:56.476Z,8.83
2018-01-19T13:48:25.779Z,7.77
2018-01-19T13:50:55.252Z,9.67
2018-01-19T13:53:26.707Z,7.10
2018-01-19T13:55:56.195Z,7.23
2018-01-19T13:58:25.672Z,9.03
2018-01-19T14:00:55.527Z,6.50
2018-01-19T14:03:26.724Z,10.50
2018-01-19T14:05:56.715Z,14.33
2018-01-19T14:08:26.268Z,11.90
2018-01-19T14:10:56.411Z,11.77
2018-01-19T14:13:25.908Z,8.33
2018-01-19T14:15:55.400Z,8.97
2018-01-19T14:18:24.886Z,9.10
2018-01-19T14:20:55.076Z,7.53
2018-01-19T14:23:27.140Z,7.53
2018-01-19T14:25:56.868Z,4.97
2018-01-19T14:28:26.414Z,8.17
2018-01-19T14:30:55.897Z,6.73
2018-01-19T14:33:26.018Z,8.20
2018-01-19T14:35:55.480Z,8.40
2018-01-19T14:38:24.984Z,11.60
2018-01-19T14:40:56.653Z,9.10
2018-01-19T14:43:26.299Z,10.60
2018-01-19T14:45:55.836Z,10.67
2018-01-19T14:48:25.139Z,8.67
2018-01-19T14:50:55.405Z,10.87
2018-01-19T14:53:25.658Z,13.60
2018-01-19T14:55:55.142Z,13.73
2018-01-19T14:58:26.016Z,14.07
2018-01-19T15:00:55.592Z,16.73
2018-01-19T15:03:25.221Z,13.03
2018-01-19T15:05:55.826Z,13.80
2018-01-19T15:08:25.297Z,7.77
2018-01-19T15:10:55.451Z,4.67
2018-01-19T15:13:24.928Z,5.33
2018-01-19T15:15:56.830Z,5.97
2018-01-19T15:18:26.313Z,5.43
2018-01-19T15:20:56.141Z,6.67
2018-01-19T15:23:25.725Z,4.63
2018-01-19T15:25:55.220Z,3.97
2018-01-19T15:28:26.831Z,4.03
2018-01-19T15:30:56.626Z,7.13
2018-01-19T15:33:26.104Z,6.13
2018-01-19T15:35:55.587Z,7.40
2018-01-19T15:38:25.219Z,9.33
2018-01-19T15:40:55.412Z,7.90
2018-01-19T15:43:27.133Z,11.87
2018-01-19T15:45:56.959Z,14.83
2018-01-19T15:48:27.220Z,18.07
2018-01-19T15:50:56.762Z,8.33
2018-01-19T15:53:26.256Z,11.47
2018-01-19T15:55:55.832Z,9.37
2018-01-19T15:58:25.521Z,12.00
2018-01-19T16:00:55.044Z,12.13
2018-01-19T16:03:26.628Z,9.87
2018-01-19T16:05:56.125Z,7.83
2018-01-19T16:08:25.632Z,11.93
2018-01-19T16:10:55.646Z,6.10
2018-01-19T16:13:25.942Z,7.93
2018-01-19T16:15:55.663Z,7.33
2018-01-19T16:18:25.281Z,8.50
2018-01-19T16:20:54.766Z,8.97
2018-01-19T16:23:24.268Z,10.17
2018-01-19T16:25:56.080Z,10.37
2018-01-19T16:28:25.575Z,9.63
2018-01-19T16:30:55.092Z,12.20
2018-01-19T16:33:25.852Z,13.67
2018-01-19T16:35:55.663Z,11.07
2018-01-19T16:38:25.163Z,12.27
2018-01-19T16:40:56.569Z,12.37
2018-01-19T16:43:26.044Z,11.30
2018-01-19T16:45:55.567Z,13.30
2018-01-19T16:48:25.209Z,12.97
2018-01-19T16:50:56.743Z,14.40
2018-01-19T16:53:27.002Z,15.33
2018-01-19T16:55:56.516Z,16.53
2018-01-19T16:58:26.009Z,14.53
2018-01-19T17:00:56.065Z,15.50
2018-01-19T17:03:25.968Z,14.10
2018-01-19T17:05:56.024Z,11.63
2018-01-19T17:08:25.546Z,18.43
2018-01-19T17:10:55.076Z,14.60
2018-01-19T17:13:27.749Z,13.97
2018-01-19T17:15:57.238Z,19.77
2018-01-19T17:18:26.728Z,15.53
2018-01-19T17:20:56.794Z,17.80
2018-01-19T17:23:25.988Z,17.30
2018-01-19T17:25:56.666Z,22.03
2018-01-19T17:28:26.354Z,18.73
2018-01-19T17:30:56.876Z,20.57
2018-01-19T17:33:26.401Z,20.60
2018-01-19T17:35:55.923Z,25.10
2018-01-19T17:38:25.464Z,24.83
2018-01-19T17:40:55.020Z,23.80
2018-01-19T17:43:24.523Z,22.77
2018-01-19T17:45:57.264Z,20.20
2018-01-19T17:48:27.634Z,22.67
2018-01-19T17:50:56.839Z,29.97
2018-01-19T17:53:26.315Z,21.00
2018-01-19T17:55:56.331Z,25.73
2018-01-19T17:58:25.872Z,24.70
2018-01-19T18:00:56.136Z,25.83
2018-01-19T18:03:25.852Z,25.90
2018-01-19T18:05:56.461Z,25.13
2018-01-19T18:08:26.040Z,26.73
2018-01-19T18:10:57.374Z,26.23
2018-01-19T18:13:26.870Z,21.70
2018-01-19T18:15:58.214Z,27.73
2018-01-19T18:18:27.821Z,21.30
2018-01-19T18:20:59.241Z,24.03
2018-01-19T18:23:29.198Z,21.80
2018-01-19T18:26:00.733Z,27.23
2018-01-19T18:28:30.505Z,24.53
2018-01-19T18:31:00.128Z,28.47
2018-01-19T18:33:30.912Z,22.60
2018-01-19T18:36:00.680Z,24.97
2018-01-19T18:38:30.511Z,24.60
2018-01-19T18:41:00.902Z,24.23
2018-01-19T18:43:30.490Z,22.53
2018-01-19T18:46:00.160Z,22.97
2018-01-19T18:48:30.169Z,24.57
2018-01-19T18:51:00.491Z,23.63
2018-01-19T18:53:30.228Z,19.27
2018-01-19T18:56:00.235Z,22.13
2018-01-19T18:58:29.731Z,20.90
2018-01-19T19:01:00.788Z,19.53
2018-01-19T19:03:30.629Z,22.47
2018-01-19T19:06:00.738Z,19.23
2018-01-19T19:08:30.861Z,25.97
2018-01-19T19:11:00.353Z,24.80
2018-01-19T19:13:33.124Z,27.13
2018-01-19T19:16:03.482Z,24.20
2018-01-19T19:18:33.448Z,26.10
2018-01-19T19:21:03.016Z,28.20
2018-01-19T19:23:32.676Z,26.33
2018-01-19T19:26:02.425Z,26.47
2018-01-19T19:28:33.371Z,28.73
2018-01-19T19:31:03.436Z,26.07
2018-01-19T19:33:32.976Z,34.10
2018-01-19T19:36:02.870Z,29.97
2018-01-19T19:38:32.501Z,31.43
2018-01-19T19:41:02.215Z,32.87
2018-01-19T19:43:32.312Z,29.23
2018-01-19T19:46:01.829Z,30.87
2018-01-19T19:48:31.478Z,27.87
2018-01-19T19:51:00.961Z,29.00
2018-01-19T19:53:30.693Z,26.50
2018-01-19T19:56:00.195Z,25.60
2018-01-19T19:58:29.778Z,24.47
2018-01-19T20:00:59.342Z,22.37
2018-01-19T20:03:30.329Z,23.87
2018-01-19T20:05:59.844Z,18.07
2018-01-19T20:08:29.076Z,22.90
2018-01-19T20:10:58.613Z,19.50
2018-01-19T20:13:28.469Z,20.27
2018-01-19T20:15:58.212Z,20.07
2018-01-19T20:18:27.709Z,23.27
2018-01-19T20:20:57.214Z,24.17
2018-01-19T20:23:26.747Z,30.60
2018-01-19T20:25:56.236Z,27.03
2018-01-19T20:28:26.824Z,30.07
2018-01-19T20:30:56.351Z,27.73
2018-01-19T20:33:26.584Z,33.33
2018-01-19T20:35:56.151Z,30.30
2018-01-19T20:38:25.631Z,35.13
2018-01-19T20:40:55.127Z,30.47
2018-01-19T20:43:26.268Z,38.20
2018-01-19T20:45:55.729Z,36.03
2018-01-19T20:48:25.241Z,43.80
2018-01-19T20:50:56.173Z,36.83
2018-01-19T20:53:26.820Z,31.70
2018-01-19T20:55:56.308Z,29.20
2018-01-19T20:58:26.060Z,28.80
2018-01-19T21:00:55.662Z,27.50
2018-01-19T21:03:25.424Z,22.90
2018-01-19T21:05:55.170Z,23.63
2018-01-19T21:08:26.768Z,21.90
2018-01-19T21:10:56.496Z,22.73
2018-01-19T21:13:25.993Z,27.57
2018-01-19T21:15:55.507Z,21.07
2018-01-19T21:18:25.031Z,18.93
2018-01-19T21:20:56.191Z,24.00
2018-01-19T21:23:25.663Z,21.10
2018-01-19T21:25:55.173Z,16.90
2018-01-19T21:28:27.267Z,18.23
2018-01-19T21:30:57.080Z,18.90
2018-01-19T21:33:26.584Z,16.20
2018-01-19T21:35:56.088Z,19.57
2018-01-19T21:38:25.607Z,20.77
2018-01-19T21:40:55.097Z,19.00
2018-01-19T21:43:26.149Z,20.90
2018-01-19T21:45:55.656Z,18.70
2018-01-19T21:48:25.166Z,19.30
2018-01-19T21:50:56.804Z,18.80
2018-01-19T21:53:26.291Z,20.77
2018-01-19T21:55:55.814Z,22.50
2018-01-19T21:58:25.340Z,26.50
2018-01-19T22:00:54.858Z,19.40
2018-01-19T22:03:26.315Z,20.63
2018-01-19T22:05:55.799Z,15.70
2018-01-19T22:08:25.303Z,21.90
2018-01-19T22:10:54.805Z,24.07
2018-01-19T22:13:25.079Z,24.07
2018-01-19T22:15:56.063Z,17.47
2018-01-19T22:18:25.588Z,23.10
2018-01-19T22:20:55.090Z,18.03
2018-01-19T22:23:26.777Z,18.37
2018-01-19T22:25:56.603Z,18.93
2018-01-19T22:28:26.124Z,17.63
2018-01-19T22:30:55.789Z,20.40
2018-01-19T22:33:26.533Z,23.37
2018-01-19T22:35:56.140Z,15.80
2018-01-19T22:38:25.680Z,16.10
2018-01-19T22:40:55.184Z,19.17
2018-01-19T22:43:26.316Z,20.30
2018-01-19T22:45:55.940Z,17.27
2018-01-19T22:48:25.914Z,20.73
2018-01-19T22:50:55.429Z,23.37
2018-01-19T22:53:26.164Z,16.43
2018-01-19T22:55:55.830Z,18.53
2018-01-19T22:58:25.395Z,15.30
2018-01-19T23:00:54.903Z,17.47
2018-01-19T23:03:26.640Z,15.00
2018-01-19T23:05:55.875Z,15.17
2018-01-19T23:08:25.428Z,17.43
2018-01-19T23:10:55.537Z,20.37
2018-01-19T23:13:26.529Z,25.67
2018-01-19T23:15:56.443Z,18.97
2018-01-19T23:18:26.064Z,21.00
2018-01-19T23:20:55.581Z,16.07
2018-01-19T23:23:25.072Z,18.30
2018-01-19T23:25:56.599Z,20.77
2018-01-19T23:28:26.717Z,20.53
2018-01-19T23:30:56.204Z,22.20
2018-01-19T23:33:25.702Z,18.87
2018-01-19T23:35:55.180Z,23.93
2018-01-19T23:38:26.844Z,26.90
2018-01-19T23:40:56.335Z,23.17
2018-01-19T23:43:25.840Z,18.27
2018-01-19T23:45:55.543Z,21.07
2018-01-19T23:48:25.049Z,20.03
2018-01-19T23:50:56.508Z,19.80
2018-01-19T23:53:25.957Z,16.17
2018-01-19T23:55:55.451Z,15.50
2018-01-19T23:58:24.968Z,16.10
